sensor_id;sensor_type;location;lat;lon;timestamp;temperature;humidity
45008;DHT22;30743;52.008;5.644;2022-11-20T00:03:35;4.70;94.90
45008;DHT22;30743;52.008;5.644;2022-11-20T00:06:03;4.70;95.20
45008;DHT22;30743;52.008;5.644;2022-11-20T00:08:29;4.70;95.20
45008;DHT22;30743;52.008;5.644;2022-11-20T00:10:55;4.70;94.90
45008;DHT22;30743;52.008;5.644;2022-11-20T00:13:20;4.60;94.70
45008;DHT22;30743;52.008;5.644;2022-11-20T00:15:46;4.60;94.90
45008;DHT22;30743;52.008;5.644;2022-11-20T00:18:11;4.50;95.00
45008;DHT22;30743;52.008;5.644;2022-11-20T00:20:37;4.60;95.20
45008;DHT22;30743;52.008;5.644;2022-11-20T00:23:02;4.50;95.30
45008;DHT22;30743;52.008;5.644;2022-11-20T00:25:28;4.50;95.30
45008;DHT22;30743;52.008;5.644;2022-11-20T00:27:53;4.50;95.00
45008;DHT22;30743;52.008;5.644;2022-11-20T00:30:19;4.50;95.10
45008;DHT22;30743;52.008;5.644;2022-11-20T00:32:44;4.50;95.10
45008;DHT22;30743;52.008;5.644;2022-11-20T00:35:10;4.40;95.20
45008;DHT22;30743;52.008;5.644;2022-11-20T00:37:35;4.40;95.20
45008;DHT22;30743;52.008;5.644;2022-11-20T00:40:01;4.40;95.00
45008;DHT22;30743;52.008;5.644;2022-11-20T00:42:26;4.40;95.00
45008;DHT22;30743;52.008;5.644;2022-11-20T00:44:52;4.40;95.00
45008;DHT22;30743;52.008;5.644;2022-11-20T00:47:17;4.40;95.20
45008;DHT22;30743;52.008;5.644;2022-11-20T00:49:43;4.30;95.10
45008;DHT22;30743;52.008;5.644;2022-11-20T00:52:08;4.30;95.30
45008;DHT22;30743;52.008;5.644;2022-11-20T00:54:34;4.30;95.40
45008;DHT22;30743;52.008;5.644;2022-11-20T00:56:59;4.40;95.40
45008;DHT22;30743;52.008;5.644;2022-11-20T00:59:25;4.30;95.40
45008;DHT22;30743;52.008;5.644;2022-11-20T01:01:50;4.30;95.70
45008;DHT22;30743;52.008;5.644;2022-11-20T01:04:16;4.30;95.30
45008;DHT22;30743;52.008;5.644;2022-11-20T01:06:41;4.30;95.40
45008;DHT22;30743;52.008;5.644;2022-11-20T01:09:13;4.30;95.50
45008;DHT22;30743;52.008;5.644;2022-11-20T01:11:41;4.30;95.20
45008;DHT22;30743;52.008;5.644;2022-11-20T01:14:11;4.10;95.10
45008;DHT22;30743;52.008;5.644;2022-11-20T01:16:39;4.10;95.00
45008;DHT22;30743;52.008;5.644;2022-11-20T01:19:07;4.00;95.00
45008;DHT22;30743;52.008;5.644;2022-11-20T01:21:35;4.00;95.10
45008;DHT22;30743;52.008;5.644;2022-11-20T01:24:02;3.90;95.30
45008;DHT22;30743;52.008;5.644;2022-11-20T01:26:30;3.90;95.50
45008;DHT22;30743;52.008;5.644;2022-11-20T01:28:56;3.90;95.60
45008;DHT22;30743;52.008;5.644;2022-11-20T01:31:25;3.90;95.70
45008;DHT22;30743;52.008;5.644;2022-11-20T01:33:55;3.90;95.80
45008;DHT22;30743;52.008;5.644;2022-11-20T01:36:23;3.90;95.80
45008;DHT22;30743;52.008;5.644;2022-11-20T01:39:00;3.90;95.80
45008;DHT22;30743;52.008;5.644;2022-11-20T01:41:27;4.00;95.60
45008;DHT22;30743;52.008;5.644;2022-11-20T01:44:14;3.90;95.80
45008;DHT22;30743;52.008;5.644;2022-11-20T01:46:47;3.90;95.30
45008;DHT22;30743;52.008;5.644;2022-11-20T01:49:46;3.80;95.50
45008;DHT22;30743;52.008;5.644;2022-11-20T01:52:23;3.80;95.50
45008;DHT22;30743;52.008;5.644;2022-11-20T01:54:56;3.80;95.50
45008;DHT22;30743;52.008;5.644;2022-11-20T01:57:27;3.80;95.60
45008;DHT22;30743;52.008;5.644;2022-11-20T02:00:08;3.80;95.80
45008;DHT22;30743;52.008;5.644;2022-11-20T02:02:36;3.80;95.90
45008;DHT22;30743;52.008;5.644;2022-11-20T02:05:31;3.80;95.90
45008;DHT22;30743;52.008;5.644;2022-11-20T02:07:56;3.80;95.90
45008;DHT22;30743;52.008;5.644;2022-11-20T02:10:22;3.90;95.90
45008;DHT22;30743;52.008;5.644;2022-11-20T02:12:48;3.80;95.80
45008;DHT22;30743;52.008;5.644;2022-11-20T02:15:32;3.80;95.80
45008;DHT22;30743;52.008;5.644;2022-11-20T02:17:58;3.90;95.90
45008;DHT22;30743;52.008;5.644;2022-11-20T02:20:24;3.80;95.90
45008;DHT22;30743;52.008;5.644;2022-11-20T02:25:51;3.80;96.00
45008;DHT22;30743;52.008;5.644;2022-11-20T02:28:18;3.80;95.70
45008;DHT22;30743;52.008;5.644;2022-11-20T02:30:43;3.80;95.70
45008;DHT22;30743;52.008;5.644;2022-11-20T02:33:09;3.80;95.90
45008;DHT22;30743;52.008;5.644;2022-11-20T02:38:02;3.80;95.90
45008;DHT22;30743;52.008;5.644;2022-11-20T02:40:28;3.80;95.70
45008;DHT22;30743;52.008;5.644;2022-11-20T02:42:54;3.80;95.70
45008;DHT22;30743;52.008;5.644;2022-11-20T02:45:21;3.80;95.70
45008;DHT22;30743;52.008;5.644;2022-11-20T02:47:46;3.80;95.80
45008;DHT22;30743;52.008;5.644;2022-11-20T02:50:12;3.70;95.40
45008;DHT22;30743;52.008;5.644;2022-11-20T02:52:37;3.60;95.40
45008;DHT22;30743;52.008;5.644;2022-11-20T02:55:03;3.70;95.60
45008;DHT22;30743;52.008;5.644;2022-11-20T02:57:29;3.70;95.70
45008;DHT22;30743;52.008;5.644;2022-11-20T02:59:54;3.60;95.70
45008;DHT22;30743;52.008;5.644;2022-11-20T03:02:20;3.50;95.70
45008;DHT22;30743;52.008;5.644;2022-11-20T03:04:45;3.50;95.90
45008;DHT22;30743;52.008;5.644;2022-11-20T03:07:11;3.50;96.20
45008;DHT22;30743;52.008;5.644;2022-11-20T03:09:36;3.50;95.80
45008;DHT22;30743;52.008;5.644;2022-11-20T03:12:02;3.50;95.60
45008;DHT22;30743;52.008;5.644;2022-11-20T03:14:28;3.50;95.40
45008;DHT22;30743;52.008;5.644;2022-11-20T03:16:53;3.50;95.40
45008;DHT22;30743;52.008;5.644;2022-11-20T03:19:19;3.40;95.50
45008;DHT22;30743;52.008;5.644;2022-11-20T03:21:44;3.40;95.60
45008;DHT22;30743;52.008;5.644;2022-11-20T03:24:10;3.40;95.40
45008;DHT22;30743;52.008;5.644;2022-11-20T03:26:35;3.40;95.40
45008;DHT22;30743;52.008;5.644;2022-11-20T03:29:03;3.40;95.50
45008;DHT22;30743;52.008;5.644;2022-11-20T03:31:35;3.40;95.50
45008;DHT22;30743;52.008;5.644;2022-11-20T03:34:02;3.30;95.60
45008;DHT22;30743;52.008;5.644;2022-11-20T03:36:28;3.30;95.70
45008;DHT22;30743;52.008;5.644;2022-11-20T03:38:54;3.30;95.90
45008;DHT22;30743;52.008;5.644;2022-11-20T03:41:23;3.30;96.00
45008;DHT22;30743;52.008;5.644;2022-11-20T03:43:54;3.30;96.00
45008;DHT22;30743;52.008;5.644;2022-11-20T03:46:20;3.30;95.90
45008;DHT22;30743;52.008;5.644;2022-11-20T03:48:46;3.40;95.90
45008;DHT22;30743;52.008;5.644;2022-11-20T03:51:14;3.40;95.70
45008;DHT22;30743;52.008;5.644;2022-11-20T03:53:42;3.30;95.50
45008;DHT22;30743;52.008;5.644;2022-11-20T03:56:09;3.20;95.50
45008;DHT22;30743;52.008;5.644;2022-11-20T03:58:37;3.20;95.60
45008;DHT22;30743;52.008;5.644;2022-11-20T04:01:18;3.20;95.90
45008;DHT22;30743;52.008;5.644;2022-11-20T04:03:44;3.10;95.80
45008;DHT22;30743;52.008;5.644;2022-11-20T04:06:29;3.10;95.90
45008;DHT22;30743;52.008;5.644;2022-11-20T04:08:56;3.10;95.90
45008;DHT22;30743;52.008;5.644;2022-11-20T04:11:27;3.00;95.20
45008;DHT22;30743;52.008;5.644;2022-11-20T04:13:58;2.90;95.40
45008;DHT22;30743;52.008;5.644;2022-11-20T04:16:25;3.00;95.70
45008;DHT22;30743;52.008;5.644;2022-11-20T04:18:55;3.00;96.00
45008;DHT22;30743;52.008;5.644;2022-11-20T04:21:21;3.00;95.90
45008;DHT22;30743;52.008;5.644;2022-11-20T04:23:47;3.00;96.00
45008;DHT22;30743;52.008;5.644;2022-11-20T04:26:13;3.00;96.10
45008;DHT22;30743;52.008;5.644;2022-11-20T04:28:39;3.10;96.20
45008;DHT22;30743;52.008;5.644;2022-11-20T04:31:16;3.10;96.10
45008;DHT22;30743;52.008;5.644;2022-11-20T04:33:42;3.10;95.80
45008;DHT22;30743;52.008;5.644;2022-11-20T04:36:31;3.10;95.90
45008;DHT22;30743;52.008;5.644;2022-11-20T04:38:59;3.10;96.00
45008;DHT22;30743;52.008;5.644;2022-11-20T04:41:35;3.10;96.00
45008;DHT22;30743;52.008;5.644;2022-11-20T04:44:03;3.10;95.90
45008;DHT22;30743;52.008;5.644;2022-11-20T04:46:31;3.10;95.90
45008;DHT22;30743;52.008;5.644;2022-11-20T04:48:56;3.10;95.80
45008;DHT22;30743;52.008;5.644;2022-11-20T04:51:22;3.10;95.80
45008;DHT22;30743;52.008;5.644;2022-11-20T04:53:48;3.10;95.30
45008;DHT22;30743;52.008;5.644;2022-11-20T04:56:14;3.10;95.40
45008;DHT22;30743;52.008;5.644;2022-11-20T04:58:39;3.00;95.60
45008;DHT22;30743;52.008;5.644;2022-11-20T05:01:06;3.00;95.60
45008;DHT22;30743;52.008;5.644;2022-11-20T05:03:32;3.00;95.50
45008;DHT22;30743;52.008;5.644;2022-11-20T05:06:04;3.00;95.40
45008;DHT22;30743;52.008;5.644;2022-11-20T05:08:30;3.00;95.50
45008;DHT22;30743;52.008;5.644;2022-11-20T05:11:10;3.00;95.50
45008;DHT22;30743;52.008;5.644;2022-11-20T05:13:36;2.90;95.70
45008;DHT22;30743;52.008;5.644;2022-11-20T05:16:07;2.90;95.80
45008;DHT22;30743;52.008;5.644;2022-11-20T05:18:34;2.90;95.90
45008;DHT22;30743;52.008;5.644;2022-11-20T05:21:00;2.90;95.70
45008;DHT22;30743;52.008;5.644;2022-11-20T05:23:27;2.90;95.50
45008;DHT22;30743;52.008;5.644;2022-11-20T05:25:54;2.90;95.60
45008;DHT22;30743;52.008;5.644;2022-11-20T05:28:20;2.90;95.70
45008;DHT22;30743;52.008;5.644;2022-11-20T05:30:45;2.80;95.60
45008;DHT22;30743;52.008;5.644;2022-11-20T05:33:11;2.80;95.60
45008;DHT22;30743;52.008;5.644;2022-11-20T05:35:37;2.80;95.60
45008;DHT22;30743;52.008;5.644;2022-11-20T05:38:02;2.80;95.60
45008;DHT22;30743;52.008;5.644;2022-11-20T05:40:28;2.80;95.70
45008;DHT22;30743;52.008;5.644;2022-11-20T05:42:53;2.80;95.80
45008;DHT22;30743;52.008;5.644;2022-11-20T05:45:19;2.80;95.70
45008;DHT22;30743;52.008;5.644;2022-11-20T05:47:44;2.80;95.60
45008;DHT22;30743;52.008;5.644;2022-11-20T05:50:10;2.70;95.90
45008;DHT22;30743;52.008;5.644;2022-11-20T05:52:35;2.80;95.80
45008;DHT22;30743;52.008;5.644;2022-11-20T05:55:00;2.80;95.50
45008;DHT22;30743;52.008;5.644;2022-11-20T05:57:26;2.80;95.60
45008;DHT22;30743;52.008;5.644;2022-11-20T05:59:52;2.70;95.80
45008;DHT22;30743;52.008;5.644;2022-11-20T06:02:17;2.80;95.80
45008;DHT22;30743;52.008;5.644;2022-11-20T06:04:43;2.70;95.70
45008;DHT22;30743;52.008;5.644;2022-11-20T06:07:08;2.80;95.30
45008;DHT22;30743;52.008;5.644;2022-11-20T06:09:34;2.80;95.30
45008;DHT22;30743;52.008;5.644;2022-11-20T06:11:59;2.80;95.50
45008;DHT22;30743;52.008;5.644;2022-11-20T06:14:25;2.70;95.40
45008;DHT22;30743;52.008;5.644;2022-11-20T06:16:50;2.70;95.30
45008;DHT22;30743;52.008;5.644;2022-11-20T06:19:16;2.80;95.40
45008;DHT22;30743;52.008;5.644;2022-11-20T06:21:42;2.70;95.40
45008;DHT22;30743;52.008;5.644;2022-11-20T06:24:09;2.70;95.20
45008;DHT22;30743;52.008;5.644;2022-11-20T06:26:34;2.70;94.90
45008;DHT22;30743;52.008;5.644;2022-11-20T06:29:00;2.60;94.90
45008;DHT22;30743;52.008;5.644;2022-11-20T06:31:26;2.50;95.00
45008;DHT22;30743;52.008;5.644;2022-11-20T06:33:52;2.50;95.20
45008;DHT22;30743;52.008;5.644;2022-11-20T06:36:20;2.40;95.20
45008;DHT22;30743;52.008;5.644;2022-11-20T06:38:45;2.40;95.30
45008;DHT22;30743;52.008;5.644;2022-11-20T06:41:13;2.40;95.70
45008;DHT22;30743;52.008;5.644;2022-11-20T06:43:40;2.50;95.90
45008;DHT22;30743;52.008;5.644;2022-11-20T06:46:05;2.50;95.90
45008;DHT22;30743;52.008;5.644;2022-11-20T06:48:31;2.50;96.00
45008;DHT22;30743;52.008;5.644;2022-11-20T06:50:57;2.60;96.00
45008;DHT22;30743;52.008;5.644;2022-11-20T06:53:23;2.60;95.90
45008;DHT22;30743;52.008;5.644;2022-11-20T06:55:50;2.60;95.90
45008;DHT22;30743;52.008;5.644;2022-11-20T06:58:16;2.60;95.90
45008;DHT22;30743;52.008;5.644;2022-11-20T07:00:42;2.70;95.80
45008;DHT22;30743;52.008;5.644;2022-11-20T07:03:10;2.70;95.80
45008;DHT22;30743;52.008;5.644;2022-11-20T07:05:36;2.70;95.90
45008;DHT22;30743;52.008;5.644;2022-11-20T07:08:02;2.70;95.70
45008;DHT22;30743;52.008;5.644;2022-11-20T07:10:28;2.80;95.80
45008;DHT22;30743;52.008;5.644;2022-11-20T07:12:54;2.90;95.90
45008;DHT22;30743;52.008;5.644;2022-11-20T07:15:21;2.90;96.00
45008;DHT22;30743;52.008;5.644;2022-11-20T07:17:47;3.00;95.90
45008;DHT22;30743;52.008;5.644;2022-11-20T07:20:13;2.90;95.70
45008;DHT22;30743;52.008;5.644;2022-11-20T07:22:38;2.90;96.00
45008;DHT22;30743;52.008;5.644;2022-11-20T07:25:04;3.00;96.10
45008;DHT22;30743;52.008;5.644;2022-11-20T07:27:30;3.00;96.30
45008;DHT22;30743;52.008;5.644;2022-11-20T07:29:56;3.20;96.70
45008;DHT22;30743;52.008;5.644;2022-11-20T07:32:22;3.40;97.20
45008;DHT22;30743;52.008;5.644;2022-11-20T07:34:47;3.70;97.20
45008;DHT22;30743;52.008;5.644;2022-11-20T07:37:13;3.90;96.80
45008;DHT22;30743;52.008;5.644;2022-11-20T07:39:39;4.10;96.40
45008;DHT22;30743;52.008;5.644;2022-11-20T07:42:06;4.20;96.20
45008;DHT22;30743;52.008;5.644;2022-11-20T07:44:32;4.40;96.40
45008;DHT22;30743;52.008;5.644;2022-11-20T07:46:57;4.70;97.00
45008;DHT22;30743;52.008;5.644;2022-11-20T07:49:23;5.20;97.70
45008;DHT22;30743;52.008;5.644;2022-11-20T07:51:50;5.80;98.10
45008;DHT22;30743;52.008;5.644;2022-11-20T07:54:16;6.40;97.50
45008;DHT22;30743;52.008;5.644;2022-11-20T07:56:42;6.90;96.80
45008;DHT22;30743;52.008;5.644;2022-11-20T07:59:07;7.20;96.10
45008;DHT22;30743;52.008;5.644;2022-11-20T08:01:33;7.30;94.40
45008;DHT22;30743;52.008;5.644;2022-11-20T08:03:58;7.50;94.10
45008;DHT22;30743;52.008;5.644;2022-11-20T08:06:24;7.60;94.40
45008;DHT22;30743;52.008;5.644;2022-11-20T08:08:50;7.60;93.80
45008;DHT22;30743;52.008;5.644;2022-11-20T08:11:16;7.70;93.90
45008;DHT22;30743;52.008;5.644;2022-11-20T08:14:00;7.60;94.00
45008;DHT22;30743;52.008;5.644;2022-11-20T08:16:44;7.60;93.70
45008;DHT22;30743;52.008;5.644;2022-11-20T08:19:11;7.50;93.50
45008;DHT22;30743;52.008;5.644;2022-11-20T08:21:36;7.40;93.50
45008;DHT22;30743;52.008;5.644;2022-11-20T08:24:02;7.40;93.80
45008;DHT22;30743;52.008;5.644;2022-11-20T08:26:28;7.40;93.90
45008;DHT22;30743;52.008;5.644;2022-11-20T08:28:55;7.40;94.00
45008;DHT22;30743;52.008;5.644;2022-11-20T08:31:22;7.40;94.20
45008;DHT22;30743;52.008;5.644;2022-11-20T08:33:47;7.50;94.30
45008;DHT22;30743;52.008;5.644;2022-11-20T08:36:13;7.40;94.50
45008;DHT22;30743;52.008;5.644;2022-11-20T08:38:38;7.30;95.00
45008;DHT22;30743;52.008;5.644;2022-11-20T08:41:05;7.10;95.90
45008;DHT22;30743;52.008;5.644;2022-11-20T08:43:50;7.00;96.00
45008;DHT22;30743;52.008;5.644;2022-11-20T08:46:16;6.60;96.40
45008;DHT22;30743;52.008;5.644;2022-11-20T08:48:41;6.40;96.90
45008;DHT22;30743;52.008;5.644;2022-11-20T08:51:07;6.30;97.30
45008;DHT22;30743;52.008;5.644;2022-11-20T08:53:32;6.30;97.40
45008;DHT22;30743;52.008;5.644;2022-11-20T08:55:58;6.30;98.00
45008;DHT22;30743;52.008;5.644;2022-11-20T08:58:24;6.50;97.90
45008;DHT22;30743;52.008;5.644;2022-11-20T09:00:50;6.70;97.80
45008;DHT22;30743;52.008;5.644;2022-11-20T09:03:15;6.70;97.80
45008;DHT22;30743;52.008;5.644;2022-11-20T09:05:41;6.70;98.00
45008;DHT22;30743;52.008;5.644;2022-11-20T09:08:07;6.80;97.80
45008;DHT22;30743;52.008;5.644;2022-11-20T09:10:33;6.70;97.90
45008;DHT22;30743;52.008;5.644;2022-11-20T09:12:59;6.70;98.10
45008;DHT22;30743;52.008;5.644;2022-11-20T09:15:25;6.50;97.90
45008;DHT22;30743;52.008;5.644;2022-11-20T09:18:01;6.30;97.90
45008;DHT22;30743;52.008;5.644;2022-11-20T09:20:28;6.20;98.50
45008;DHT22;30743;52.008;5.644;2022-11-20T09:22:55;6.10;98.80
45008;DHT22;30743;52.008;5.644;2022-11-20T09:25:21;6.00;99.10
45008;DHT22;30743;52.008;5.644;2022-11-20T09:27:47;5.90;99.40
45008;DHT22;30743;52.008;5.644;2022-11-20T09:30:14;6.00;99.50
45008;DHT22;30743;52.008;5.644;2022-11-20T09:32:40;6.20;99.60
45008;DHT22;30743;52.008;5.644;2022-11-20T09:35:06;6.30;99.60
45008;DHT22;30743;52.008;5.644;2022-11-20T09:37:31;6.20;99.60
45008;DHT22;30743;52.008;5.644;2022-11-20T09:39:57;6.40;99.60
45008;DHT22;30743;52.008;5.644;2022-11-20T09:42:32;6.60;99.60
45008;DHT22;30743;52.008;5.644;2022-11-20T09:45:18;6.70;99.50
45008;DHT22;30743;52.008;5.644;2022-11-20T09:50:32;6.90;99.60
45008;DHT22;30743;52.008;5.644;2022-11-20T09:56:08;7.10;99.40
45008;DHT22;30743;52.008;5.644;2022-11-20T09:58:42;7.10;99.50
45008;DHT22;30743;52.008;5.644;2022-11-20T10:01:17;7.00;99.60
45008;DHT22;30743;52.008;5.644;2022-11-20T10:06:13;6.90;99.70
45008;DHT22;30743;52.008;5.644;2022-11-20T10:09:00;7.00;99.90
45008;DHT22;30743;52.008;5.644;2022-11-20T10:11:44;6.90;99.90
45008;DHT22;30743;52.008;5.644;2022-11-20T10:14:26;7.00;99.90
45008;DHT22;30743;52.008;5.644;2022-11-20T10:19:54;7.10;99.90
45008;DHT22;30743;52.008;5.644;2022-11-20T10:22:26;6.70;99.90
45008;DHT22;30743;52.008;5.644;2022-11-20T10:25:14;6.70;99.90
45008;DHT22;30743;52.008;5.644;2022-11-20T10:28:09;6.80;99.90
45008;DHT22;30743;52.008;5.644;2022-11-20T10:30:44;6.90;99.90
45008;DHT22;30743;52.008;5.644;2022-11-20T10:33:21;7.10;99.90
45008;DHT22;30743;52.008;5.644;2022-11-20T10:36:14;7.30;99.90
45008;DHT22;30743;52.008;5.644;2022-11-20T10:38:46;7.70;99.90
45008;DHT22;30743;52.008;5.644;2022-11-20T10:41:29;8.20;99.90
45008;DHT22;30743;52.008;5.644;2022-11-20T10:44:21;8.70;99.90
45008;DHT22;30743;52.008;5.644;2022-11-20T10:47:14;9.20;99.90
45008;DHT22;30743;52.008;5.644;2022-11-20T10:49:42;9.50;99.90
45008;DHT22;30743;52.008;5.644;2022-11-20T10:52:25;9.70;99.90
45008;DHT22;30743;52.008;5.644;2022-11-20T10:55:13;9.80;99.50
45008;DHT22;30743;52.008;5.644;2022-11-20T10:58:11;9.90;99.50
45008;DHT22;30743;52.008;5.644;2022-11-20T11:00:38;9.70;99.90
45008;DHT22;30743;52.008;5.644;2022-11-20T11:03:22;9.60;99.90
45008;DHT22;30743;52.008;5.644;2022-11-20T11:05:54;9.50;99.90
45008;DHT22;30743;52.008;5.644;2022-11-20T11:08:26;9.40;99.90
45008;DHT22;30743;52.008;5.644;2022-11-20T11:10:54;9.20;99.90
45008;DHT22;30743;52.008;5.644;2022-11-20T11:13:29;9.00;99.90
45008;DHT22;30743;52.008;5.644;2022-11-20T11:15:55;8.80;99.90
45008;DHT22;30743;52.008;5.644;2022-11-20T11:18:29;8.50;99.90
45008;DHT22;30743;52.008;5.644;2022-11-20T11:20:56;8.50;99.90
45008;DHT22;30743;52.008;5.644;2022-11-20T11:23:32;8.50;99.90
45008;DHT22;30743;52.008;5.644;2022-11-20T11:26:00;8.50;99.90
45008;DHT22;30743;52.008;5.644;2022-11-20T11:28:27;8.50;99.90
45008;DHT22;30743;52.008;5.644;2022-11-20T11:30:53;8.40;99.90
45008;DHT22;30743;52.008;5.644;2022-11-20T11:33:28;8.40;99.90
45008;DHT22;30743;52.008;5.644;2022-11-20T11:35:58;8.40;99.90
45008;DHT22;30743;52.008;5.644;2022-11-20T11:38:36;8.20;99.90
45008;DHT22;30743;52.008;5.644;2022-11-20T11:41:03;8.00;99.90
45008;DHT22;30743;52.008;5.644;2022-11-20T11:43:32;8.20;99.90
45008;DHT22;30743;52.008;5.644;2022-11-20T11:49:11;8.30;99.90
45008;DHT22;30743;52.008;5.644;2022-11-20T11:52:02;8.30;99.90
45008;DHT22;30743;52.008;5.644;2022-11-20T11:56:56;8.20;99.90
45008;DHT22;30743;52.008;5.644;2022-11-20T11:59:29;8.30;99.90
45008;DHT22;30743;52.008;5.644;2022-11-20T12:02:02;8.30;99.90
45008;DHT22;30743;52.008;5.644;2022-11-20T12:04:43;8.40;99.90
45008;DHT22;30743;52.008;5.644;2022-11-20T12:09:47;8.10;99.90
45008;DHT22;30743;52.008;5.644;2022-11-20T12:12:20;8.20;99.90
45008;DHT22;30743;52.008;5.644;2022-11-20T12:14:48;8.20;99.90
45008;DHT22;30743;52.008;5.644;2022-11-20T12:17:16;8.20;99.90
45008;DHT22;30743;52.008;5.644;2022-11-20T12:19:43;8.30;99.90
45008;DHT22;30743;52.008;5.644;2022-11-20T12:22:31;8.40;99.90
45008;DHT22;30743;52.008;5.644;2022-11-20T12:25:29;8.50;99.90
45008;DHT22;30743;52.008;5.644;2022-11-20T12:30:41;8.70;99.90
45008;DHT22;30743;52.008;5.644;2022-11-20T12:33:43;8.80;99.90
45008;DHT22;30743;52.008;5.644;2022-11-20T12:36:51;8.80;99.90
45008;DHT22;30743;52.008;5.644;2022-11-20T12:39:41;8.70;99.90
45008;DHT22;30743;52.008;5.644;2022-11-20T12:48:23;8.70;99.90
45008;DHT22;30743;52.008;5.644;2022-11-20T12:57:09;8.40;99.90
45008;DHT22;30743;52.008;5.644;2022-11-20T13:06:10;8.20;99.90
45008;DHT22;30743;52.008;5.644;2022-11-20T13:08:39;8.20;99.90
45008;DHT22;30743;52.008;5.644;2022-11-20T13:19:13;8.60;99.90
45008;DHT22;30743;52.008;5.644;2022-11-20T13:21:40;8.60;99.90
45008;DHT22;30743;52.008;5.644;2022-11-20T13:29:30;8.80;99.90
45008;DHT22;30743;52.008;5.644;2022-11-20T13:32:05;8.60;99.90
45008;DHT22;30743;52.008;5.644;2022-11-20T13:34:32;8.60;99.90
45008;DHT22;30743;52.008;5.644;2022-11-20T13:36:59;8.50;99.90
45008;DHT22;30743;52.008;5.644;2022-11-20T13:39:36;8.50;99.90
45008;DHT22;30743;52.008;5.644;2022-11-20T13:42:26;8.50;99.90
45008;DHT22;30743;52.008;5.644;2022-11-20T13:45:01;8.40;99.90
45008;DHT22;30743;52.008;5.644;2022-11-20T13:47:28;8.10;99.90
45008;DHT22;30743;52.008;5.644;2022-11-20T13:49:55;8.00;99.90
45008;DHT22;30743;52.008;5.644;2022-11-20T14:00:45;7.90;99.90
45008;DHT22;30743;52.008;5.644;2022-11-20T14:03:19;8.10;99.90
45008;DHT22;30743;52.008;5.644;2022-11-20T14:05:51;8.30;99.90
45008;DHT22;30743;52.008;5.644;2022-11-20T14:11:17;8.40;99.90
45008;DHT22;30743;52.008;5.644;2022-11-20T14:14:00;8.40;99.90
45008;DHT22;30743;52.008;5.644;2022-11-20T14:16:30;8.40;99.90
45008;DHT22;30743;52.008;5.644;2022-11-20T14:18:57;8.30;99.90
45008;DHT22;30743;52.008;5.644;2022-11-20T14:21:27;8.30;99.90
45008;DHT22;30743;52.008;5.644;2022-11-20T14:24:03;8.10;99.90
45008;DHT22;30743;52.008;5.644;2022-11-20T14:26:29;8.00;99.90
45008;DHT22;30743;52.008;5.644;2022-11-20T14:28:54;7.90;99.90
45008;DHT22;30743;52.008;5.644;2022-11-20T14:31:25;7.80;99.90
45008;DHT22;30743;52.008;5.644;2022-11-20T14:33:53;7.90;99.90
45008;DHT22;30743;52.008;5.644;2022-11-20T14:36:21;8.00;99.90
45008;DHT22;30743;52.008;5.644;2022-11-20T14:38:48;8.10;99.90
45008;DHT22;30743;52.008;5.644;2022-11-20T14:41:23;8.00;99.90
45008;DHT22;30743;52.008;5.644;2022-11-20T14:43:59;8.10;99.90
45008;DHT22;30743;52.008;5.644;2022-11-20T14:46:25;8.30;99.90
45008;DHT22;30743;52.008;5.644;2022-11-20T14:48:56;8.40;99.90
45008;DHT22;30743;52.008;5.644;2022-11-20T14:51:37;8.50;99.90
45008;DHT22;30743;52.008;5.644;2022-11-20T14:54:15;8.50;99.90
45008;DHT22;30743;52.008;5.644;2022-11-20T14:56:42;8.70;99.90
45008;DHT22;30743;52.008;5.644;2022-11-20T14:59:32;8.60;99.90
45008;DHT22;30743;52.008;5.644;2022-11-20T15:02:10;8.60;99.90
45008;DHT22;30743;52.008;5.644;2022-11-20T15:04:56;8.60;99.90
45008;DHT22;30743;52.008;5.644;2022-11-20T15:07:34;8.70;99.90
45008;DHT22;30743;52.008;5.644;2022-11-20T15:10:06;8.80;99.90
45008;DHT22;30743;52.008;5.644;2022-11-20T15:12:37;8.90;99.90
45008;DHT22;30743;52.008;5.644;2022-11-20T15:15:04;8.80;99.90
45008;DHT22;30743;52.008;5.644;2022-11-20T15:17:31;8.90;99.90
45008;DHT22;30743;52.008;5.644;2022-11-20T15:20:13;9.00;99.90
45008;DHT22;30743;52.008;5.644;2022-11-20T15:22:38;8.90;99.90
45008;DHT22;30743;52.008;5.644;2022-11-20T15:25:14;8.90;99.90
45008;DHT22;30743;52.008;5.644;2022-11-20T15:27:41;8.90;99.90
45008;DHT22;30743;52.008;5.644;2022-11-20T15:30:16;8.80;99.90
45008;DHT22;30743;52.008;5.644;2022-11-20T15:32:42;8.70;99.90
45008;DHT22;30743;52.008;5.644;2022-11-20T15:35:09;8.90;99.90
45008;DHT22;30743;52.008;5.644;2022-11-20T15:37:35;8.80;99.90
45008;DHT22;30743;52.008;5.644;2022-11-20T15:40:01;8.70;99.90
45008;DHT22;30743;52.008;5.644;2022-11-20T15:42:26;8.80;99.90
45008;DHT22;30743;52.008;5.644;2022-11-20T15:44:52;8.80;99.90
45008;DHT22;30743;52.008;5.644;2022-11-20T15:47:18;8.70;99.90
45008;DHT22;30743;52.008;5.644;2022-11-20T15:49:44;8.50;99.90
45008;DHT22;30743;52.008;5.644;2022-11-20T15:52:10;8.60;99.90
45008;DHT22;30743;52.008;5.644;2022-11-20T15:54:35;8.70;99.90
45008;DHT22;30743;52.008;5.644;2022-11-20T15:57:01;8.80;99.90
45008;DHT22;30743;52.008;5.644;2022-11-20T15:59:28;8.80;99.90
45008;DHT22;30743;52.008;5.644;2022-11-20T16:01:53;8.90;99.90
45008;DHT22;30743;52.008;5.644;2022-11-20T16:04:19;8.90;99.90
45008;DHT22;30743;52.008;5.644;2022-11-20T16:06:44;9.00;99.90
45008;DHT22;30743;52.008;5.644;2022-11-20T16:09:10;9.10;99.90
45008;DHT22;30743;52.008;5.644;2022-11-20T16:11:36;9.10;99.90
45008;DHT22;30743;52.008;5.644;2022-11-20T16:14:02;9.10;99.90
45008;DHT22;30743;52.008;5.644;2022-11-20T16:16:47;9.00;99.90
45008;DHT22;30743;52.008;5.644;2022-11-20T16:19:13;9.00;99.90
45008;DHT22;30743;52.008;5.644;2022-11-20T16:21:39;8.80;99.90
45008;DHT22;30743;52.008;5.644;2022-11-20T16:24:08;8.90;99.90
45008;DHT22;30743;52.008;5.644;2022-11-20T16:26:34;8.70;99.90
45008;DHT22;30743;52.008;5.644;2022-11-20T16:29:01;8.90;99.90
45008;DHT22;30743;52.008;5.644;2022-11-20T16:31:28;8.70;99.90
45008;DHT22;30743;52.008;5.644;2022-11-20T16:33:55;8.70;99.90
45008;DHT22;30743;52.008;5.644;2022-11-20T16:36:22;8.90;99.90
45008;DHT22;30743;52.008;5.644;2022-11-20T16:38:53;8.90;99.90
45008;DHT22;30743;52.008;5.644;2022-11-20T16:41:19;8.90;99.90
45008;DHT22;30743;52.008;5.644;2022-11-20T16:43:46;9.00;99.90
45008;DHT22;30743;52.008;5.644;2022-11-20T16:46:14;9.00;99.90
45008;DHT22;30743;52.008;5.644;2022-11-20T16:48:39;9.00;99.90
45008;DHT22;30743;52.008;5.644;2022-11-20T16:51:08;8.90;99.90
45008;DHT22;30743;52.008;5.644;2022-11-20T16:53:34;9.00;99.90
45008;DHT22;30743;52.008;5.644;2022-11-20T16:56:14;8.80;99.90
45008;DHT22;30743;52.008;5.644;2022-11-20T16:58:48;8.80;99.90
45008;DHT22;30743;52.008;5.644;2022-11-20T17:01:16;8.80;99.90
45008;DHT22;30743;52.008;5.644;2022-11-20T17:03:43;8.80;99.90
45008;DHT22;30743;52.008;5.644;2022-11-20T17:06:17;8.70;99.90
45008;DHT22;30743;52.008;5.644;2022-11-20T17:08:43;8.70;99.90
45008;DHT22;30743;52.008;5.644;2022-11-20T17:11:11;8.60;99.90
45008;DHT22;30743;52.008;5.644;2022-11-20T17:13:37;8.70;99.90